Pride Of Canterbury — MPQZ6 — position and weather

sailwx.info

Track history (hours):
 
Tides and Currents Weather Stations Pressure Air Temp Water Temp Dewpoint Dewpoint Depression Visibility Wind Speed Wind Dir Waves Ship Positions

Pride Of Canterbury

Operator: P & O Ferries

Last reported at 2019-Jan-23 22:30 UTC. Time now 2019-Jan-23 22:38 UTC.
Position N 50°58' E 001°51'.

Length 180 m; draft 5.7 m.

Type: Passenger vessel. MMSI: 232001060.

Date/timePositionNaut miles runAvg speedWind from/ knotsBaromVisibWave heightAir tempDewpointWater temp
2019-Jan-23 22:30N 50°58' E 001°51'815.7
2019-Jan-23 21:58N 50°59' E 001°37'818.6
2019-Jan-23 21:31N 51°04' E 001°27'6 6.7
2019-Jan-23 20:40N 51°07' E 001°20'0 0.0
2019-Jan-23 20:12N 51°07' E 001°20'0 1.7
2019-Jan-23 20:00N 51°07' E 001°21'917.4
2019-Jan-23 19:30N 51°03' E 001°33'918.6
2019-Jan-23 19:01N 50°58' E 001°45'4 6.5
2019-Jan-23 18:26N 50°58' E 001°51'0 0.0
2019-Jan-23 17:54N 50°58' E 001°51'0 1.2
2019-Jan-23 17:30N 50°58' E 001°50'815.3
2019-Jan-23 17:00N 50°59' E 001°38'918.6
2019-Jan-23 16:30N 51°04' E 001°26'5 9.4
2019-Jan-23 15:59N 51°07' E 001°20'0 0.0
2019-Jan-23 15:30N 51°07' E 001°20'0 0.3
2019-Jan-23 15:00N 51°07' E 001°20'612.7
2019-Jan-23 14:30N 51°05' E 001°30'917.1
2019-Jan-23 14:00N 50°60' E 001°41'713.1
2019-Jan-23 13:30N 50°58' E 001°51'0 0.4
2019-Jan-23 13:00N 50°58' E 001°51'1 1.4
2019-Jan-23 12:30N 50°58' E 001°50'1019.2
2019-Jan-23 12:00N 51°00' E 001°35'1019.2
2019-Jan-23 11:30N 51°06' E 001°23'2 4.3
2019-Jan-23 11:01N 51°07' E 001°20'0 0.0
2019-Jan-23 10:30N 51°07' E 001°20'612.6
2019-Jan-23 10:00N 51°05' E 001°29'918.8
2019-Jan-23 09:30N 50°60' E 001°42'611.0
2019-Jan-23 08:57N 50°58' E 001°51'0 0.0
2019-Jan-23 08:30N 50°58' E 001°51'0 0.8
2019-Jan-23 07:59N 50°58' E 001°50'815.6
2019-Jan-23 07:29N 50°58' E 001°38'918.2
2019-Jan-23 07:01N 51°02' E 001°26'612.7
2019-Jan-23 06:30N 51°07' E 001°20'0 0.0
2019-Jan-23 05:59N 51°07' E 001°20'0 0.0
2019-Jan-23 05:29N 51°07' E 001°20'3 6.5
2019-Jan-23 05:01N 51°06' E 001°25'917.6
2019-Jan-23 04:31N 51°02' E 001°37'917.3
2019-Jan-23 04:01N 50°58' E 001°49'1 2.2
2019-Jan-23 03:29N 50°58' E 001°51'0 0.0
2019-Jan-23 02:49N 50°58' E 001°51'3 7.5
2019-Jan-23 02:28N 50°58' E 001°47'919.0
2019-Jan-23 02:00N 51°01' E 001°34'918.7
2019-Jan-23 01:30N 51°07' E 001°22'1 2.5
2019-Jan-23 00:57N 51°07' E 001°20'0 0.3
2019-Jan-23 00:29N 51°07' E 001°20'815.8
2019-Jan-23 00:00N 51°04' E 001°31'918.9
2019-Jan-22 23:31N 50°59' E 001°44'5 4.7
2019-Jan-22 22:31N 50°58' E 001°51'0 0.0
2019-Jan-22 22:26N 50°58' E 001°51'0 0.0
2019-Jan-22 22:00N 50°58' E 001°51'510.0
2019-Jan-22 21:31N 50°58' E 001°43'917.2
2019-Jan-22 21:00N 51°02' E 001°31'917.0
2019-Jan-22 20:31N 51°07' E 001°20'0 0.5
2019-Jan-22 20:00N 51°07' E 001°20'0 0.1
2019-Jan-22 19:29N 51°07' E 001°20'612.4
2019-Jan-22 19:00N 51°06' E 001°29'918.7
2019-Jan-22 18:30N 51°00' E 001°41'712.7
2019-Jan-22 17:58N 50°58' E 001°51'0 0.0
2019-Jan-22 17:29N 50°58' E 001°51'2 3.2
2019-Jan-22 17:00N 50°58' E 001°49'817.0
2019-Jan-22 16:30N 51°00' E 001°36'918.9
2019-Jan-22 16:01N 51°06' E 001°24'3 5.0
2019-Jan-22 15:30N 51°07' E 001°20'0 0.0
2019-Jan-22 15:00N 51°07' E 001°20'613.0
2019-Jan-22 14:30N 51°06' E 001°30'918.2
2019-Jan-22 14:01N 51°00' E 001°41'612.6
2019-Jan-22 13:30N 50°58' E 001°51'0 0.1
2019-Jan-22 12:53N 50°58' E 001°51'3 6.8
2019-Jan-22 12:28N 50°58' E 001°46'919.4
2019-Jan-22 12:01N 51°02' E 001°34'1019.1
2019-Jan-22 11:30N 51°07' E 001°20'1 1.7
2019-Jan-22 11:00N 51°07' E 001°20'1 1.2
2019-Jan-22 10:30N 51°07' E 001°21'917.5
2019-Jan-22 10:00N 51°03' E 001°33'917.8
2019-Jan-22 09:30N 50°58' E 001°45'4 6.3
2019-Jan-22 08:54N 50°58' E 001°51'0 0.0
2019-Jan-22 08:30N 50°58' E 001°51'4 9.0
2019-Jan-22 08:00N 50°58' E 001°44'917.1
2019-Jan-22 07:30N 51°02' E 001°32'916.1
2019-Jan-22 06:58N 51°07' E 001°21'1 0.7
2019-Jan-22 06:13N 51°07' E 001°20'0 0.1
2019-Jan-22 06:00N 51°07' E 001°20'2 4.5
2019-Jan-22 05:30N 51°07' E 001°24'4 7.1
2019-Jan-22 05:01N 51°05' E 001°29'713.2
2019-Jan-22 04:31N 51°02' E 001°37'815.2
2019-Jan-22 04:01N 50°58' E 001°48'2 1.8
2019-Jan-22 02:59N 50°58' E 001°51'1 2.0
2019-Jan-22 02:31N 50°58' E 001°50'816.2
2019-Jan-22 02:01N 51°00' E 001°37'816.1
2019-Jan-22 01:30N 51°05' E 001°27'5 9.1
2019-Jan-22 00:59N 51°07' E 001°20'0 0.0
2019-Jan-22 00:30N 51°07' E 001°20'2 4.0
2019-Jan-22 00:00N 51°07' E 001°23'817.0
2019-Jan-21 23:30N 51°03' E 001°35'815.2
2019-Jan-21 23:01N 50°58' E 001°45'4 5.2
2019-Jan-21 22:15N 50°58' E 001°51'0 0.0
2019-Jan-21 21:55N 50°58' E 001°51'2 4.5
2019-Jan-21 21:30N 50°58' E 001°48'816.7
2019-Jan-21 21:00N 51°01' E 001°35'917.5
2019-Jan-21 20:30N 51°06' E 001°24'3 6.0
2019-Jan-21 20:00N 51°07' E 001°20'0 0.0
2019-Jan-21 19:27N 51°07' E 001°20'2 3.9
2019-Jan-21 19:00N 51°07' E 001°23'918.2
2019-Jan-21 18:30N 51°02' E 001°35'918.9
2019-Jan-21 18:00N 50°58' E 001°49'2 2.9
2019-Jan-21 17:29N 50°58' E 001°51'0 0.0
2019-Jan-21 16:56N 50°58' E 001°51'612.9
2019-Jan-21 16:30N 50°58' E 001°42'918.6
2019-Jan-21 16:00N 51°03' E 001°30'7 9.2
2019-Jan-21 15:12N 51°07' E 001°20'0 0.0
2019-Jan-21 14:44N 51°07' E 001°20'2 7.3
2019-Jan-21 14:30N 51°07' E 001°23'918.2
2019-Jan-21 14:00N 51°03' E 001°35'917.6
2019-Jan-21 13:30N 50°58' E 001°47'3 4.9
2019-Jan-21 13:00N 50°58' E 001°51'0 0.0
2019-Jan-21 12:30N 50°58' E 001°51'613.0
2019-Jan-21 12:00N 50°58' E 001°41'1019.2
2019-Jan-21 11:31N 51°04' E 001°29'6 5.5
2019-Jan-21 10:22N 51°07' E 001°20'410.9
2019-Jan-21 10:00N 51°07' E 001°26'918.8
2019-Jan-21 09:30N 51°02' E 001°39'816.0
2019-Jan-21 09:00N 50°58' E 001°50'0 0.9
2019-Jan-21 08:30N 50°58' E 001°51'0 0.0
2019-Jan-21 08:00N 50°58' E 001°51'713.6
2019-Jan-21 07:31N 50°58' E 001°40'917.5
2019-Jan-21 07:00N 51°03' E 001°28'713.9
2019-Jan-21 06:30N 51°07' E 001°20'0 0.1
2019-Jan-21 05:59N 51°07' E 001°20'0 0.0
2019-Jan-21 05:30N 51°07' E 001°20'4 8.0
2019-Jan-21 05:00N 51°07' E 001°26'816.1
2019-Jan-21 04:31N 51°02' E 001°37'816.1
2019-Jan-21 04:01N 50°58' E 001°48'2 3.7
2019-Jan-21 03:29N 50°58' E 001°51'0 0.0
2019-Jan-21 03:00N 50°58' E 001°51'0 0.8
2019-Jan-21 02:24N 50°58' E 001°50'616.4
2019-Jan-21 02:00N 50°59' E 001°40'816.6
2019-Jan-21 01:30N 51°03' E 001°29'714.1
2019-Jan-21 01:00N 51°07' E 001°20'0 0.0
2019-Jan-21 00:30N 51°07' E 001°20'2 3.2
2019-Jan-21 00:00N 51°07' E 001°23'816.1
2019-Jan-20 23:30N 51°04' E 001°34'815.9
2019-Jan-20 23:00N 50°59' E 001°44'5 7.2
2019-Jan-20 22:22N 50°58' E 001°51'0 0.0
2019-Jan-20 21:52N 50°58' E 001°51'1 1.5
2019-Jan-20 21:30N 50°58' E 001°50'815.4
2019-Jan-20 21:01N 50°60' E 001°39'918.0
2019-Jan-20 20:30N 51°04' E 001°26'5 9.6
2019-Jan-20 20:00N 51°07' E 001°20'0 0.0
2019-Jan-20 19:28N 51°07' E 001°20'2 4.0
2019-Jan-20 19:01N 51°07' E 001°23'1019.1
2019-Jan-20 18:30N 51°03' E 001°37'917.8
2019-Jan-20 18:01N 50°58' E 001°49'1 2.4
2019-Jan-20 17:28N 50°58' E 001°51'0 0.5
2019-Jan-20 16:57N 50°58' E 001°51'715.0
2019-Jan-20 16:30N 50°59' E 001°40'918.5
2019-Jan-20 16:00N 51°04' E 001°28'612.1
2019-Jan-20 15:30N 51°07' E 001°20'0 0.0
2019-Jan-20 15:00N 51°07' E 001°20'2 5.1
2019-Jan-20 14:30N 51°07' E 001°24'918.1
2019-Jan-20 14:00N 51°02' E 001°36'917.4
2019-Jan-20 13:30N 50°58' E 001°49'1 1.3
2019-Jan-20 12:29N 50°58' E 001°51'818.0
2019-Jan-20 12:00N 50°59' E 001°37'919.0
2019-Jan-20 11:31N 51°05' E 001°26'4 8.6
2019-Jan-20 11:00N 51°07' E 001°20'0 0.4
2019-Jan-20 10:31N 51°07' E 001°20'816.9
2019-Jan-20 10:00N 51°04' E 001°33'918.1
2019-Jan-20 09:30N 50°59' E 001°44'4 7.3
2019-Jan-20 08:56N 50°58' E 001°51'0 0.5
2019-Jan-20 08:19N 50°58' E 001°51'517.0
2019-Jan-20 08:00N 50°58' E 001°42'917.1
2019-Jan-20 07:30N 51°01' E 001°30'817.0
2019-Jan-20 07:00N 51°07' E 001°20'1 1.1
2019-Jan-20 06:30N 51°07' E 001°20'0 0.0
2019-Jan-20 05:58N 51°07' E 001°20'0 0.0
2019-Jan-20 05:30N 51°07' E 001°20'0 0.7
2019-Jan-20 05:00N 51°07' E 001°21'918.5
2019-Jan-20 04:30N 51°03' E 001°33'1019.2
2019-Jan-20 04:01N 50°58' E 001°47'3 5.1
2019-Jan-20 03:27N 50°58' E 001°51'0 0.0
2019-Jan-20 03:00N 50°58' E 001°51'0 0.8
2019-Jan-20 02:23N 50°58' E 001°50'617.0
2019-Jan-20 02:00N 50°58' E 001°40'714.4
2019-Jan-20 01:30N 51°02' E 001°31'815.0
2019-Jan-20 01:00N 51°07' E 001°21'1 2.1
2019-Jan-20 00:30N 51°07' E 001°20'2 3.5
2019-Jan-20 00:01N 51°07' E 001°23'917.8
2019-Jan-19 23:31N 51°03' E 001°35'917.1
2019-Jan-19 23:00N 50°58' E 001°47'3 4.9
2019-Jan-19 22:27N 50°58' E 001°51'0 0.7
2019-Jan-19 21:58N 50°58' E 001°51'918.3
2019-Jan-19 21:28N 50°59' E 001°37'918.6
2019-Jan-19 21:00N 51°04' E 001°25'5 9.2
2019-Jan-19 20:31N 51°07' E 001°20'0 0.0
2019-Jan-19 20:00N 51°07' E 001°20'3 7.2
2019-Jan-19 19:30N 51°06' E 001°25'918.9
2019-Jan-19 19:00N 51°01' E 001°38'917.1
2019-Jan-19 18:30N 50°58' E 001°51'0 0.6
2019-Jan-19 17:58N 50°58' E 001°51'0 0.0
2019-Jan-19 17:30N 50°58' E 001°51'4 8.5
2019-Jan-19 17:00N 50°58' E 001°44'816.1
2019-Jan-19 16:31N 51°02' E 001°33'917.2
2019-Jan-19 16:00N 51°07' E 001°22'1 2.5
2019-Jan-19 15:29N 51°07' E 001°20'0 0.2
2019-Jan-19 15:00N 51°07' E 001°20'816.6
2019-Jan-19 14:30N 51°05' E 001°33'714.7
2019-Jan-19 14:00N 50°60' E 001°41'6 9.5
2019-Jan-19 13:21N 50°58' E 001°51'0 0.0
2019-Jan-19 12:59N 50°58' E 001°51'1 2.9
2019-Jan-19 12:30N 50°58' E 001°49'1017.2
2019-Jan-19 11:56N 51°01' E 001°34'717.5
2019-Jan-19 11:30N 51°05' E 001°24'3 6.5
2019-Jan-19 11:00N 51°07' E 001°20'0 0.0
2019-Jan-19 10:30N 51°07' E 001°20'3 6.6
2019-Jan-19 10:00N 51°07' E 001°25'816.9
2019-Jan-19 09:30N 51°03' E 001°37'816.2
2019-Jan-19 09:00N 50°58' E 001°47'2 4.5
2019-Jan-19 08:28N 50°58' E 001°51'0 0.0
2019-Jan-19 07:57N 50°58' E 001°51'511.6
2019-Jan-19 07:30N 50°58' E 001°43'917.2
2019-Jan-19 07:00N 51°02' E 001°31'816.2
2019-Jan-19 06:30N 51°07' E 001°20'0 0.5
2019-Jan-19 06:00N 51°07' E 001°20'0 0.0
2019-Jan-19 05:30N 51°07' E 001°20'1 2.1
2019-Jan-19 05:01N 51°07' E 001°22'918.3
2019-Jan-19 04:30N 51°02' E 001°34'918.3
2019-Jan-19 04:00N 50°58' E 001°47'3 5.4
2019-Jan-19 03:30N 50°58' E 001°51'0 0.0
2019-Jan-19 03:00N 50°58' E 001°51'0 0.0
2019-Jan-19 02:30N 50°58' E 001°51'3 5.2
2019-Jan-19 02:00N 50°58' E 001°47'917.5
2019-Jan-19 01:30N 51°00' E 001°34'917.9
2019-Jan-19 01:01N 51°06' E 001°23'2 4.6
2019-Jan-19 00:31N 51°07' E 001°20'0 0.0
2019-Jan-19 00:00N 51°07' E 001°20'612.7
2019-Jan-18 23:30N 51°04' E 001°29'918.3
2019-Jan-18 23:00N 50°60' E 001°41'610.7
2019-Jan-18 22:25N 50°58' E 001°51'0 0.0
2019-Jan-18 21:42N 50°58' E 001°51'1 4.7
2019-Jan-18 21:31N 50°58' E 001°50'918.7
2019-Jan-18 21:00N 51°01' E 001°35'918.1
2019-Jan-18 20:30N 51°06' E 001°24'3 5.2
2019-Jan-18 20:00N 51°07' E 001°20'0 0.0
2019-Jan-18 19:30N 51°07' E 001°20'612.3
2019-Jan-18 19:00N 51°06' E 001°29'919.0
2019-Jan-18 18:31N 51°00' E 001°42'612.0
2019-Jan-18 17:58N 50°58' E 001°51'0 0.0
2019-Jan-18 17:28N 50°58' E 001°51'3 5.6
2019-Jan-18 17:00N 50°58' E 001°47'816.1
2019-Jan-18 16:30N 51°01' E 001°35'918.1
2019-Jan-18 16:00N 51°06' E 001°23'2 4.9
2019-Jan-18 15:30N 51°07' E 001°20'0 0.0
2019-Jan-18 15:00N 51°07' E 001°20'3 6.6
2019-Jan-18 14:31N 51°06' E 001°25'918.7
2019-Jan-18 14:01N 51°02' E 001°38'917.2
2019-Jan-18 13:30N 50°58' E 001°50'0 0.7
2019-Jan-18 12:52N 50°58' E 001°51'0 0.7
2019-Jan-18 12:24N 50°58' E 001°51'616.4
2019-Jan-18 12:01N 50°59' E 001°40'918.5
2019-Jan-18 11:30N 51°04' E 001°28'612.2
2019-Jan-18 11:01N 51°07' E 001°20'0 0.0
2019-Jan-18 10:30N 51°07' E 001°20'2 4.0
2019-Jan-18 10:00N 51°07' E 001°23'917.9
2019-Jan-18 09:31N 51°03' E 001°36'817.0
2019-Jan-18 09:01N 50°58' E 001°47'2 3.7
2019-Jan-18 08:21N 50°58' E 001°51'0 0.0
2019-Jan-18 07:54N 50°58' E 001°51'410.4
2019-Jan-18 07:30N 50°58' E 001°45'919.0
2019-Jan-18 07:01N 51°02' E 001°31'917.4
2019-Jan-18 06:30N 51°07' E 001°20'0 0.4
2019-Jan-18 06:00N 51°07' E 001°20'0 0.0
2019-Jan-18 05:30N 51°07' E 001°20'2 3.4
2019-Jan-18 05:01N 51°07' E 001°23'917.4
2019-Jan-18 04:31N 51°03' E 001°35'917.6
2019-Jan-18 04:01N 50°58' E 001°46'3 6.0
2019-Jan-18 03:30N 50°58' E 001°51'0 0.3
2019-Jan-18 03:00N 50°58' E 001°51'715.0
2019-Jan-18 02:30N 50°59' E 001°39'918.5
2019-Jan-18 02:01N 51°04' E 001°27'611.2
2019-Jan-18 01:30N 51°07' E 001°20'0 0.0
2019-Jan-18 01:00N 51°07' E 001°20'612.4
2019-Jan-18 00:30N 51°06' E 001°29'918.3
2019-Jan-18 00:00N 50°60' E 001°41'713.4
2019-Jan-17 23:30N 50°58' E 001°51'0 0.0
2019-Jan-17 22:58N 50°58' E 001°51'3 6.4
2019-Jan-17 22:30N 50°58' E 001°46'918.4
2019-Jan-17 22:00N 51°01' E 001°33'918.9
2019-Jan-17 21:30N 51°07' E 001°21'1 1.3
2019-Jan-17 21:00N 51°07' E 001°20'0 0.0
2019-Jan-17 20:30N 51°07' E 001°20'511.2
2019-Jan-17 20:01N 51°05' E 001°28'917.5
2019-Jan-17 19:30N 51°00' E 001°40'714.6
2019-Jan-17 19:01N 50°58' E 001°51'0 0.4
2019-Jan-17 18:30N 50°58' E 001°51'0 0.2
2019-Jan-17 18:00N 50°58' E 001°51'611.4
2019-Jan-17 17:30N 50°59' E 001°42'917.9
2019-Jan-17 17:00N 51°03' E 001°29'714.9
2019-Jan-17 16:30N 51°07' E 001°20'0 0.0
2019-Jan-17 16:00N 51°07' E 001°20'0 0.0
2019-Jan-17 15:30N 51°07' E 001°20'2 3.3
2019-Jan-17 15:00N 51°07' E 001°23'917.8
2019-Jan-17 14:30N 51°03' E 001°35'917.6
2019-Jan-17 14:00N 50°58' E 001°47'3 4.9
2019-Jan-17 13:30N 50°58' E 001°51'0 0.0
2019-Jan-17 12:59N 50°58' E 001°51'3 6.3
2019-Jan-17 12:30N 50°58' E 001°46'817.2
2019-Jan-17 12:00N 51°02' E 001°34'918.7
2019-Jan-17 11:31N 51°07' E 001°22'1 2.4
2019-Jan-17 11:00N 51°07' E 001°20'0 0.1
2019-Jan-17 10:30N 51°07' E 001°20'612.7
2019-Jan-17 10:00N 51°04' E 001°29'816.7
2019-Jan-17 09:30N 51°01' E 001°41'713.3
2019-Jan-17 09:01N 50°58' E 001°51'0 0.1
2019-Jan-17 08:06N 50°58' E 001°51'0 4.1
2019-Jan-17 08:00N 50°58' E 001°50'918.2
2019-Jan-17 07:30N 50°60' E 001°36'918.9
2019-Jan-17 07:00N 51°06' E 001°25'3 6.6
2019-Jan-17 06:30N 51°07' E 001°20'0 0.0
2019-Jan-17 06:00N 51°07' E 001°20'511.0
2019-Jan-17 05:30N 51°06' E 001°28'918.5
2019-Jan-17 05:00N 51°01' E 001°40'714.4
2019-Jan-17 04:30N 50°58' E 001°51'0 0.2
2019-Jan-17 03:59N 50°58' E 001°51'1 2.8
2019-Jan-17 03:30N 50°58' E 001°49'1717.3
2019-Jan-17 02:30N 51°06' E 001°24'3 6.0
2019-Jan-17 02:00N 51°07' E 001°20'0 0.0
2019-Jan-17 01:30N 51°07' E 001°20'510.1
2019-Jan-17 01:01N 51°06' E 001°28'713.4
2019-Jan-17 00:30N 51°02' E 001°36'816.9
2019-Jan-17 00:00N 50°58' E 001°48'2 3.4
2019-Jan-16 23:30N 50°58' E 001°51'0 0.0
2019-Jan-16 22:55N 50°58' E 001°51'410.0
2019-Jan-16 22:31N 50°58' E 001°45'1019.0
2019-Jan-16 22:00N 51°01' E 001°31'917.6
2019-Jan-16 21:31N 51°07' E 001°20'0 0.5
2019-Jan-16 20:40N 51°07' E 001°20'0 0.1
2019-Jan-16 20:30N 51°07' E 001°20'510.6
2019-Jan-16 20:01N 51°05' E 001°28'917.6
2019-Jan-16 19:31N 51°00' E 001°39'714.9
2019-Jan-16 19:00N 50°58' E 001°51'0 0.4
2019-Jan-16 18:28N 50°58' E 001°51'0 0.4
2019-Jan-16 17:55N 50°58' E 001°51'716.4
2019-Jan-16 17:30N 50°59' E 001°40'918.0
2019-Jan-16 17:00N 51°05' E 001°29'6 4.1
2019-Jan-16 15:29N 51°07' E 001°20'4 9.1
2019-Jan-16 15:00N 51°06' E 001°27'918.6
2019-Jan-16 14:30N 51°00' E 001°38'816.5
2019-Jan-16 14:01N 50°58' E 001°51'0 0.4
2019-Jan-16 13:28N 50°58' E 001°51'1 1.2
2019-Jan-16 13:00N 50°58' E 001°50'817.1
2019-Jan-16 12:30N 50°59' E 001°37'917.8
2019-Jan-16 12:00N 51°05' E 001°26'5 3.2
2019-Jan-16 10:36N 51°07' E 001°20'0 1.2
2019-Jan-16 10:30N 51°07' E 001°20'613.1
2019-Jan-16 10:01N 51°05' E 001°30'918.2
2019-Jan-16 09:31N 50°60' E 001°41'6 9.4
2019-Jan-16 08:50N 50°58' E 001°51'0 0.0
2019-Jan-16 08:27N 50°58' E 001°51'0 0.6
2019-Jan-16 08:00N 50°58' E 001°51'1117.6
2019-Jan-16 07:23N 51°01' E 001°34'718.4
2019-Jan-16 07:00N 51°05' E 001°25'4 7.6
2019-Jan-16 06:30N 51°07' E 001°20'0 0.0
2019-Jan-16 06:00N 51°07' E 001°20'0 0.1
2019-Jan-16 05:30N 51°07' E 001°20'2 5.0
2019-Jan-16 05:01N 51°07' E 001°24'917.2
2019-Jan-16 04:31N 51°02' E 001°36'917.2
2019-Jan-16 04:01N 50°58' E 001°48'2 1.9
2019-Jan-16 02:52N 50°58' E 001°51'3 6.9
2019-Jan-16 02:30N 50°58' E 001°47'714.7
2019-Jan-16 02:00N 50°59' E 001°36'816.7
2019-Jan-16 01:30N 51°05' E 001°26'4 3.9
2019-Jan-16 00:23N 51°07' E 001°20'2 4.9
2019-Jan-16 00:00N 51°07' E 001°23'917.5
2019-Jan-15 23:30N 51°03' E 001°35'917.8
2019-Jan-15 23:00N 50°58' E 001°47'2 4.5
2019-Jan-15 22:29N 50°58' E 001°51'0 0.0
2019-Jan-15 22:00N 50°58' E 001°51'4 7.9
2019-Jan-15 21:30N 50°58' E 001°45'918.2
2019-Jan-15 21:00N 51°02' E 001°32'918.0
2019-Jan-15 20:30N 51°07' E 001°20'0 0.3
2019-Jan-15 20:00N 51°07' E 001°20'0 0.3
2019-Jan-15 19:31N 51°07' E 001°20'714.3
2019-Jan-15 19:01N 51°04' E 001°31'917.9
2019-Jan-15 18:31N 50°59' E 001°42'6 9.5
2019-Jan-15 17:55N 50°58' E 001°51'0 0.0
2019-Jan-15 17:21N 50°58' E 001°51'2 5.2
2019-Jan-15 17:00N 50°58' E 001°48'918.9
2019-Jan-15 16:31N 51°01' E 001°34'918.8
2019-Jan-15 16:00N 51°07' E 001°22'1 2.8
2019-Jan-15 15:30N 51°07' E 001°20'0 0.0
2019-Jan-15 15:00N 51°07' E 001°20'510.1
2019-Jan-15 14:30N 51°06' E 001°28'918.4
2019-Jan-15 14:00N 51°00' E 001°40'714.7
2019-Jan-15 13:30N 50°58' E 001°51'0 0.3
2019-Jan-15 12:59N 50°58' E 001°51'0 0.8
2019-Jan-15 12:29N 50°58' E 001°50'816.3
2019-Jan-15 12:00N 50°59' E 001°38'918.8
2019-Jan-15 11:30N 51°05' E 001°26'5 9.4
2019-Jan-15 11:00N 51°07' E 001°20'0 0.0
2019-Jan-15 10:28N 51°07' E 001°20'4 8.7
2019-Jan-15 10:00N 51°06' E 001°26'917.9
2019-Jan-15 09:30N 51°01' E 001°38'816.3
2019-Jan-15 09:00N 50°58' E 001°50'1 1.0
2019-Jan-15 08:25N 50°58' E 001°51'0 0.0
2019-Jan-15 07:57N 50°58' E 001°51'612.9
2019-Jan-15 07:30N 50°58' E 001°42'1019.2
2019-Jan-15 07:00N 51°03' E 001°29'713.8
2019-Jan-15 06:30N 51°07' E 001°20'0 0.0
2019-Jan-15 06:00N 51°07' E 001°20'0 0.0
2019-Jan-15 05:30N 51°07' E 001°20'2 3.8
2019-Jan-15 05:00N 51°07' E 001°23'816.4
2019-Jan-15 04:31N 51°03' E 001°34'917.6
2019-Jan-15 04:00N 50°58' E 001°46'3 5.0
2019-Jan-15 03:23N 50°58' E 001°51'0 0.0
2019-Jan-15 03:00N 50°58' E 001°51'0 0.2
2019-Jan-15 02:29N 50°58' E 001°51'714.8
2019-Jan-15 02:00N 50°58' E 001°39'714.6
2019-Jan-15 01:30N 51°02' E 001°30'815.3
2019-Jan-15 00:59N 51°07' E 001°20'0 0.0
2019-Jan-15 00:30N 51°07' E 001°20'0 0.0
2019-Jan-15 00:00N 51°07' E 001°20'612.8
2019-Jan-14 23:30N 51°05' E 001°29'918.2
2019-Jan-14 23:01N 50°60' E 001°41'6 8.2
2019-Jan-14 22:14N 50°58' E 001°51'0 0.0
2019-Jan-14 21:59N 50°58' E 001°51'2 4.2
2019-Jan-14 21:30N 50°58' E 001°48'917.3
2019-Jan-14 21:00N 51°00' E 001°35'1019.2
2019-Jan-14 20:31N 51°06' E 001°23'2 3.8
2019-Jan-14 20:00N 51°07' E 001°20'0 0.4
2019-Jan-14 19:30N 51°07' E 001°20'917.3
2019-Jan-14 19:00N 51°04' E 001°33'918.2
2019-Jan-14 18:30N 50°58' E 001°45'4 7.4
2019-Jan-14 17:54N 50°58' E 001°52'0 0.0
2019-Jan-14 17:22N 50°58' E 001°52'410.6
2019-Jan-14 17:01N 50°58' E 001°46'1019.4
2019-Jan-14 16:31N 51°00' E 001°31'918.2
2019-Jan-14 16:01N 51°07' E 001°21'1 1.3
2019-Jan-14 15:30N 51°07' E 001°20'0 0.2
2019-Jan-14 15:00N 51°07' E 001°20'714.8
2019-Jan-14 14:30N 51°06' E 001°32'918.2
2019-Jan-14 14:00N 50°59' E 001°42'611.2
2019-Jan-14 13:30N 50°58' E 001°51'0 0.0
2019-Jan-14 12:59N 50°58' E 001°51'3 5.9
2019-Jan-14 12:30N 50°58' E 001°47'917.1
2019-Jan-14 12:00N 51°00' E 001°34'918.7
2019-Jan-14 11:30N 51°06' E 001°22'2 3.3
2019-Jan-14 11:00N 51°07' E 001°20'0 0.1
2019-Jan-14 10:30N 51°07' E 001°20'612.7
2019-Jan-14 10:00N 51°06' E 001°30'918.0
2019-Jan-14 09:30N 51°00' E 001°41'713.4
2019-Jan-14 09:00N 50°58' E 001°51'0 0.1
2019-Jan-14 08:25N 50°58' E 001°51'0 0.6
2019-Jan-14 08:00N 50°58' E 001°51'816.7
2019-Jan-14 07:29N 50°59' E 001°37'918.5
2019-Jan-14 07:00N 51°04' E 001°27'5 9.7
2019-Jan-14 06:29N 51°07' E 001°20'0 0.0
2019-Jan-14 06:00N 51°07' E 001°20'0 0.0
2019-Jan-14 05:28N 51°07' E 001°20'3 6.9
2019-Jan-14 05:00N 51°07' E 001°25'917.8
2019-Jan-14 04:30N 51°02' E 001°37'816.0
2019-Jan-14 04:01N 50°58' E 001°48'2 2.3
2019-Jan-14 03:16N 50°58' E 001°51'0 0.0
2019-Jan-14 02:49N 50°58' E 001°51'0 0.6
2019-Jan-14 02:28N 50°58' E 001°51'714.7
2019-Jan-14 02:00N 50°59' E 001°40'713.6
2019-Jan-14 01:30N 51°02' E 001°31'713.3
2019-Jan-14 01:00N 51°06' E 001°23'2 3.5
2019-Jan-14 00:28N 51°07' E 001°20'0 0.2
2019-Jan-14 00:00N 51°07' E 001°20'613.0
2019-Jan-13 23:30N 51°05' E 001°29'816.3
2019-Jan-13 23:00N 51°00' E 001°40'714.4
2019-Jan-13 22:31N 50°58' E 001°51'  
Track history (hours):
 
Tides and Currents Weather Stations Pressure Air Temp Water Temp Dewpoint Dewpoint Depression Visibility Wind Speed Wind Dir Waves Ship Positions

Pride Of Canterbury

Operator: P & O Ferries

Last reported at 2019-Jan-23 22:30 UTC. Time now 2019-Jan-23 22:38 UTC.
Position N 50°58' E 001°51'.

Length 180 m; draft 5.7 m.

Type: Passenger vessel. MMSI: 232001060.

Date/timePositionNaut miles runAvg speedWind from/ knotsBaromVisibWave heightAir tempDewpointWater temp
2019-Jan-23 22:30N 50°58' E 001°51'815.7
2019-Jan-23 21:58N 50°59' E 001°37'818.6
2019-Jan-23 21:31N 51°04' E 001°27'6 6.7
2019-Jan-23 20:40N 51°07' E 001°20'0 0.0
2019-Jan-23 20:12N 51°07' E 001°20'0 1.7
2019-Jan-23 20:00N 51°07' E 001°21'917.4
2019-Jan-23 19:30N 51°03' E 001°33'918.6
2019-Jan-23 19:01N 50°58' E 001°45'4 6.5
2019-Jan-23 18:26N 50°58' E 001°51'0 0.0
2019-Jan-23 17:54N 50°58' E 001°51'0 1.2
2019-Jan-23 17:30N 50°58' E 001°50'815.3
2019-Jan-23 17:00N 50°59' E 001°38'918.6
2019-Jan-23 16:30N 51°04' E 001°26'5 9.4
2019-Jan-23 15:59N 51°07' E 001°20'0 0.0
2019-Jan-23 15:30N 51°07' E 001°20'0 0.3
2019-Jan-23 15:00N 51°07' E 001°20'612.7
2019-Jan-23 14:30N 51°05' E 001°30'917.1
2019-Jan-23 14:00N 50°60' E 001°41'713.1
2019-Jan-23 13:30N 50°58' E 001°51'0 0.4
2019-Jan-23 13:00N 50°58' E 001°51'1 1.4
2019-Jan-23 12:30N 50°58' E 001°50'1019.2
2019-Jan-23 12:00N 51°00' E 001°35'1019.2
2019-Jan-23 11:30N 51°06' E 001°23'2 4.3
2019-Jan-23 11:01N 51°07' E 001°20'0 0.0
2019-Jan-23 10:30N 51°07' E 001°20'612.6
2019-Jan-23 10:00N 51°05' E 001°29'918.8
2019-Jan-23 09:30N 50°60' E 001°42'611.0
2019-Jan-23 08:57N 50°58' E 001°51'0 0.0
2019-Jan-23 08:30N 50°58' E 001°51'0 0.8
2019-Jan-23 07:59N 50°58' E 001°50'815.6
2019-Jan-23 07:29N 50°58' E 001°38'918.2
2019-Jan-23 07:01N 51°02' E 001°26'612.7
2019-Jan-23 06:30N 51°07' E 001°20'0 0.0
2019-Jan-23 05:59N 51°07' E 001°20'0 0.0
2019-Jan-23 05:29N 51°07' E 001°20'3 6.5
2019-Jan-23 05:01N 51°06' E 001°25'917.6
2019-Jan-23 04:31N 51°02' E 001°37'917.3
2019-Jan-23 04:01N 50°58' E 001°49'1 2.2
2019-Jan-23 03:29N 50°58' E 001°51'0 0.0
2019-Jan-23 02:49N 50°58' E 001°51'3 7.5
2019-Jan-23 02:28N 50°58' E 001°47'919.0
2019-Jan-23 02:00N 51°01' E 001°34'918.7
2019-Jan-23 01:30N 51°07' E 001°22'1 2.5
2019-Jan-23 00:57N 51°07' E 001°20'0 0.3
2019-Jan-23 00:29N 51°07' E 001°20'815.8
2019-Jan-23 00:00N 51°04' E 001°31'918.9
2019-Jan-22 23:31N 50°59' E 001°44'5 4.7
2019-Jan-22 22:31N 50°58' E 001°51'0 0.0
2019-Jan-22 22:26N 50°58' E 001°51'0 0.0
2019-Jan-22 22:00N 50°58' E 001°51'510.0
2019-Jan-22 21:31N 50°58' E 001°43'917.2
2019-Jan-22 21:00N 51°02' E 001°31'917.0
2019-Jan-22 20:31N 51°07' E 001°20'0 0.5
2019-Jan-22 20:00N 51°07' E 001°20'0 0.1
2019-Jan-22 19:29N 51°07' E 001°20'612.4
2019-Jan-22 19:00N 51°06' E 001°29'918.7
2019-Jan-22 18:30N 51°00' E 001°41'712.7
2019-Jan-22 17:58N 50°58' E 001°51'0 0.0
2019-Jan-22 17:29N 50°58' E 001°51'2 3.2
2019-Jan-22 17:00N 50°58' E 001°49'817.0
2019-Jan-22 16:30N 51°00' E 001°36'918.9
2019-Jan-22 16:01N 51°06' E 001°24'3 5.0
2019-Jan-22 15:30N 51°07' E 001°20'0 0.0
2019-Jan-22 15:00N 51°07' E 001°20'613.0
2019-Jan-22 14:30N 51°06' E 001°30'918.2
2019-Jan-22 14:01N 51°00' E 001°41'612.6
2019-Jan-22 13:30N 50°58' E 001°51'0 0.1
2019-Jan-22 12:53N 50°58' E 001°51'3 6.8
2019-Jan-22 12:28N 50°58' E 001°46'919.4
2019-Jan-22 12:01N 51°02' E 001°34'1019.1
2019-Jan-22 11:30N 51°07' E 001°20'1 1.7
2019-Jan-22 11:00N 51°07' E 001°20'1 1.2
2019-Jan-22 10:30N 51°07' E 001°21'917.5
2019-Jan-22 10:00N 51°03' E 001°33'917.8
2019-Jan-22 09:30N 50°58' E 001°45'4 6.3
2019-Jan-22 08:54N 50°58' E 001°51'0 0.0
2019-Jan-22 08:30N 50°58' E 001°51'4 9.0
2019-Jan-22 08:00N 50°58' E 001°44'917.1
2019-Jan-22 07:30N 51°02' E 001°32'916.1
2019-Jan-22 06:58N 51°07' E 001°21'1 0.7
2019-Jan-22 06:13N 51°07' E 001°20'0 0.1
2019-Jan-22 06:00N 51°07' E 001°20'2 4.5
2019-Jan-22 05:30N 51°07' E 001°24'4 7.1
2019-Jan-22 05:01N 51°05' E 001°29'713.2
2019-Jan-22 04:31N 51°02' E 001°37'815.2
2019-Jan-22 04:01N 50°58' E 001°48'2 1.8
2019-Jan-22 02:59N 50°58' E 001°51'1 2.0
2019-Jan-22 02:31N 50°58' E 001°50'816.2
2019-Jan-22 02:01N 51°00' E 001°37'816.1
2019-Jan-22 01:30N 51°05' E 001°27'5 9.1
2019-Jan-22 00:59N 51°07' E 001°20'0 0.0
2019-Jan-22 00:30N 51°07' E 001°20'2 4.0
2019-Jan-22 00:00N 51°07' E 001°23'817.0
2019-Jan-21 23:30N 51°03' E 001°35'815.2
2019-Jan-21 23:01N 50°58' E 001°45'4 5.2
2019-Jan-21 22:15N 50°58' E 001°51'0 0.0
2019-Jan-21 21:55N 50°58' E 001°51'2 4.5
2019-Jan-21 21:30N 50°58' E 001°48'816.7
2019-Jan-21 21:00N 51°01' E 001°35'917.5
2019-Jan-21 20:30N 51°06' E 001°24'3 6.0
2019-Jan-21 20:00N 51°07' E 001°20'0 0.0
2019-Jan-21 19:27N 51°07' E 001°20'2 3.9
2019-Jan-21 19:00N 51°07' E 001°23'918.2
2019-Jan-21 18:30N 51°02' E 001°35'918.9
2019-Jan-21 18:00N 50°58' E 001°49'2 2.9
2019-Jan-21 17:29N 50°58' E 001°51'0 0.0
2019-Jan-21 16:56N 50°58' E 001°51'612.9
2019-Jan-21 16:30N 50°58' E 001°42'918.6
2019-Jan-21 16:00N 51°03' E 001°30'7 9.2
2019-Jan-21 15:12N 51°07' E 001°20'0 0.0
2019-Jan-21 14:44N 51°07' E 001°20'2 7.3
2019-Jan-21 14:30N 51°07' E 001°23'918.2
2019-Jan-21 14:00N 51°03' E 001°35'917.6
2019-Jan-21 13:30N 50°58' E 001°47'3 4.9
2019-Jan-21 13:00N 50°58' E 001°51'0 0.0
2019-Jan-21 12:30N 50°58' E 001°51'613.0
2019-Jan-21 12:00N 50°58' E 001°41'1019.2
2019-Jan-21 11:31N 51°04' E 001°29'6 5.5
2019-Jan-21 10:22N 51°07' E 001°20'410.9
2019-Jan-21 10:00N 51°07' E 001°26'918.8
2019-Jan-21 09:30N 51°02' E 001°39'816.0
2019-Jan-21 09:00N 50°58' E 001°50'0 0.9
2019-Jan-21 08:30N 50°58' E 001°51'0 0.0
2019-Jan-21 08:00N 50°58' E 001°51'713.6
2019-Jan-21 07:31N 50°58' E 001°40'917.5
2019-Jan-21 07:00N 51°03' E 001°28'713.9
2019-Jan-21 06:30N 51°07' E 001°20'0 0.1
2019-Jan-21 05:59N 51°07' E 001°20'0 0.0
2019-Jan-21 05:30N 51°07' E 001°20'4 8.0
2019-Jan-21 05:00N 51°07' E 001°26'816.1
2019-Jan-21 04:31N 51°02' E 001°37'816.1
2019-Jan-21 04:01N 50°58' E 001°48'2 3.7
2019-Jan-21 03:29N 50°58' E 001°51'0 0.0
2019-Jan-21 03:00N 50°58' E 001°51'0 0.8
2019-Jan-21 02:24N 50°58' E 001°50'616.4
2019-Jan-21 02:00N 50°59' E 001°40'816.6
2019-Jan-21 01:30N 51°03' E 001°29'714.1
2019-Jan-21 01:00N 51°07' E 001°20'0 0.0
2019-Jan-21 00:30N 51°07' E 001°20'2 3.2
2019-Jan-21 00:00N 51°07' E 001°23'816.1
2019-Jan-20 23:30N 51°04' E 001°34'815.9
2019-Jan-20 23:00N 50°59' E 001°44'5 7.2
2019-Jan-20 22:22N 50°58' E 001°51'0 0.0
2019-Jan-20 21:52N 50°58' E 001°51'1 1.5
2019-Jan-20 21:30N 50°58' E 001°50'815.4
2019-Jan-20 21:01N 50°60' E 001°39'918.0
2019-Jan-20 20:30N 51°04' E 001°26'5 9.6
2019-Jan-20 20:00N 51°07' E 001°20'0 0.0
2019-Jan-20 19:28N 51°07' E 001°20'2 4.0
2019-Jan-20 19:01N 51°07' E 001°23'1019.1
2019-Jan-20 18:30N 51°03' E 001°37'917.8
2019-Jan-20 18:01N 50°58' E 001°49'1 2.4
2019-Jan-20 17:28N 50°58' E 001°51'0 0.5
2019-Jan-20 16:57N 50°58' E 001°51'715.0
2019-Jan-20 16:30N 50°59' E 001°40'918.5
2019-Jan-20 16:00N 51°04' E 001°28'612.1
2019-Jan-20 15:30N 51°07' E 001°20'0 0.0
2019-Jan-20 15:00N 51°07' E 001°20'2 5.1
2019-Jan-20 14:30N 51°07' E 001°24'918.1
2019-Jan-20 14:00N 51°02' E 001°36'917.4
2019-Jan-20 13:30N 50°58' E 001°49'1 1.3
2019-Jan-20 12:29N 50°58' E 001°51'818.0
2019-Jan-20 12:00N 50°59' E 001°37'919.0
2019-Jan-20 11:31N 51°05' E 001°26'4 8.6
2019-Jan-20 11:00N 51°07' E 001°20'0 0.4
2019-Jan-20 10:31N 51°07' E 001°20'816.9
2019-Jan-20 10:00N 51°04' E 001°33'918.1
2019-Jan-20 09:30N 50°59' E 001°44'4 7.3
2019-Jan-20 08:56N 50°58' E 001°51'0 0.5
2019-Jan-20 08:19N 50°58' E 001°51'517.0
2019-Jan-20 08:00N 50°58' E 001°42'917.1
2019-Jan-20 07:30N 51°01' E 001°30'817.0
2019-Jan-20 07:00N 51°07' E 001°20'1 1.1
2019-Jan-20 06:30N 51°07' E 001°20'0 0.0
2019-Jan-20 05:58N 51°07' E 001°20'0 0.0
2019-Jan-20 05:30N 51°07' E 001°20'0 0.7
2019-Jan-20 05:00N 51°07' E 001°21'918.5
2019-Jan-20 04:30N 51°03' E 001°33'1019.2
2019-Jan-20 04:01N 50°58' E 001°47'3 5.1
2019-Jan-20 03:27N 50°58' E 001°51'0 0.0
2019-Jan-20 03:00N 50°58' E 001°51'0 0.8
2019-Jan-20 02:23N 50°58' E 001°50'617.0
2019-Jan-20 02:00N 50°58' E 001°40'714.4
2019-Jan-20 01:30N 51°02' E 001°31'815.0
2019-Jan-20 01:00N 51°07' E 001°21'1 2.1
2019-Jan-20 00:30N 51°07' E 001°20'2 3.5
2019-Jan-20 00:01N 51°07' E 001°23'917.8
2019-Jan-19 23:31N 51°03' E 001°35'917.1
2019-Jan-19 23:00N 50°58' E 001°47'3 4.9
2019-Jan-19 22:27N 50°58' E 001°51'0 0.7
2019-Jan-19 21:58N 50°58' E 001°51'918.3
2019-Jan-19 21:28N 50°59' E 001°37'918.6
2019-Jan-19 21:00N 51°04' E 001°25'5 9.2
2019-Jan-19 20:31N 51°07' E 001°20'0 0.0
2019-Jan-19 20:00N 51°07' E 001°20'3 7.2
2019-Jan-19 19:30N 51°06' E 001°25'918.9
2019-Jan-19 19:00N 51°01' E 001°38'917.1
2019-Jan-19 18:30N 50°58' E 001°51'0 0.6
2019-Jan-19 17:58N 50°58' E 001°51'0 0.0
2019-Jan-19 17:30N 50°58' E 001°51'4 8.5
2019-Jan-19 17:00N 50°58' E 001°44'816.1
2019-Jan-19 16:31N 51°02' E 001°33'917.2
2019-Jan-19 16:00N 51°07' E 001°22'1 2.5
2019-Jan-19 15:29N 51°07' E 001°20'0 0.2
2019-Jan-19 15:00N 51°07' E 001°20'816.6
2019-Jan-19 14:30N 51°05' E 001°33'714.7
2019-Jan-19 14:00N 50°60' E 001°41'6 9.5
2019-Jan-19 13:21N 50°58' E 001°51'0 0.0
2019-Jan-19 12:59N 50°58' E 001°51'1 2.9
2019-Jan-19 12:30N 50°58' E 001°49'1017.2
2019-Jan-19 11:56N 51°01' E 001°34'717.5
2019-Jan-19 11:30N 51°05' E 001°24'3 6.5
2019-Jan-19 11:00N 51°07' E 001°20'0 0.0
2019-Jan-19 10:30N 51°07' E 001°20'3 6.6
2019-Jan-19 10:00N 51°07' E 001°25'816.9
2019-Jan-19 09:30N 51°03' E 001°37'816.2
2019-Jan-19 09:00N 50°58' E 001°47'2 4.5
2019-Jan-19 08:28N 50°58' E 001°51'0 0.0
2019-Jan-19 07:57N 50°58' E 001°51'511.6
2019-Jan-19 07:30N 50°58' E 001°43'917.2
2019-Jan-19 07:00N 51°02' E 001°31'816.2
2019-Jan-19 06:30N 51°07' E 001°20'0 0.5
2019-Jan-19 06:00N 51°07' E 001°20'0 0.0
2019-Jan-19 05:30N 51°07' E 001°20'1 2.1
2019-Jan-19 05:01N 51°07' E 001°22'918.3
2019-Jan-19 04:30N 51°02' E 001°34'918.3
2019-Jan-19 04:00N 50°58' E 001°47'3 5.4
2019-Jan-19 03:30N 50°58' E 001°51'0 0.0
2019-Jan-19 03:00N 50°58' E 001°51'0 0.0
2019-Jan-19 02:30N 50°58' E 001°51'3 5.2
2019-Jan-19 02:00N 50°58' E 001°47'917.5
2019-Jan-19 01:30N 51°00' E 001°34'917.9
2019-Jan-19 01:01N 51°06' E 001°23'2 4.6
2019-Jan-19 00:31N 51°07' E 001°20'0 0.0
2019-Jan-19 00:00N 51°07' E 001°20'612.7
2019-Jan-18 23:30N 51°04' E 001°29'918.3
2019-Jan-18 23:00N 50°60' E 001°41'610.7
2019-Jan-18 22:25N 50°58' E 001°51'0 0.0
2019-Jan-18 21:42N 50°58' E 001°51'1 4.7
2019-Jan-18 21:31N 50°58' E 001°50'918.7
2019-Jan-18 21:00N 51°01' E 001°35'918.1
2019-Jan-18 20:30N 51°06' E 001°24'3 5.2
2019-Jan-18 20:00N 51°07' E 001°20'0 0.0
2019-Jan-18 19:30N 51°07' E 001°20'612.3
2019-Jan-18 19:00N 51°06' E 001°29'919.0
2019-Jan-18 18:31N 51°00' E 001°42'612.0
2019-Jan-18 17:58N 50°58' E 001°51'0 0.0
2019-Jan-18 17:28N 50°58' E 001°51'3 5.6
2019-Jan-18 17:00N 50°58' E 001°47'816.1
2019-Jan-18 16:30N 51°01' E 001°35'918.1
2019-Jan-18 16:00N 51°06' E 001°23'2 4.9
2019-Jan-18 15:30N 51°07' E 001°20'0 0.0
2019-Jan-18 15:00N 51°07' E 001°20'3 6.6
2019-Jan-18 14:31N 51°06' E 001°25'918.7
2019-Jan-18 14:01N 51°02' E 001°38'917.2
2019-Jan-18 13:30N 50°58' E 001°50'0 0.7
2019-Jan-18 12:52N 50°58' E 001°51'0 0.7
2019-Jan-18 12:24N 50°58' E 001°51'616.4
2019-Jan-18 12:01N 50°59' E 001°40'918.5
2019-Jan-18 11:30N 51°04' E 001°28'612.2
2019-Jan-18 11:01N 51°07' E 001°20'0 0.0
2019-Jan-18 10:30N 51°07' E 001°20'2 4.0
2019-Jan-18 10:00N 51°07' E 001°23'917.9
2019-Jan-18 09:31N 51°03' E 001°36'817.0
2019-Jan-18 09:01N 50°58' E 001°47'2 3.7
2019-Jan-18 08:21N 50°58' E 001°51'0 0.0
2019-Jan-18 07:54N 50°58' E 001°51'410.4
2019-Jan-18 07:30N 50°58' E 001°45'919.0
2019-Jan-18 07:01N 51°02' E 001°31'917.4
2019-Jan-18 06:30N 51°07' E 001°20'0 0.4
2019-Jan-18 06:00N 51°07' E 001°20'0 0.0
2019-Jan-18 05:30N 51°07' E 001°20'2 3.4
2019-Jan-18 05:01N 51°07' E 001°23'917.4
2019-Jan-18 04:31N 51°03' E 001°35'917.6
2019-Jan-18 04:01N 50°58' E 001°46'3 6.0
2019-Jan-18 03:30N 50°58' E 001°51'0 0.3
2019-Jan-18 03:00N 50°58' E 001°51'715.0
2019-Jan-18 02:30N 50°59' E 001°39'918.5
2019-Jan-18 02:01N 51°04' E 001°27'611.2
2019-Jan-18 01:30N 51°07' E 001°20'0 0.0
2019-Jan-18 01:00N 51°07' E 001°20'612.4
2019-Jan-18 00:30N 51°06' E 001°29'918.3
2019-Jan-18 00:00N 50°60' E 001°41'713.4
2019-Jan-17 23:30N 50°58' E 001°51'0 0.0
2019-Jan-17 22:58N 50°58' E 001°51'3 6.4
2019-Jan-17 22:30N 50°58' E 001°46'918.4
2019-Jan-17 22:00N 51°01' E 001°33'918.9
2019-Jan-17 21:30N 51°07' E 001°21'1 1.3
2019-Jan-17 21:00N 51°07' E 001°20'0 0.0
2019-Jan-17 20:30N 51°07' E 001°20'511.2
2019-Jan-17 20:01N 51°05' E 001°28'917.5
2019-Jan-17 19:30N 51°00' E 001°40'714.6
2019-Jan-17 19:01N 50°58' E 001°51'0 0.4
2019-Jan-17 18:30N 50°58' E 001°51'0 0.2
2019-Jan-17 18:00N 50°58' E 001°51'611.4
2019-Jan-17 17:30N 50°59' E 001°42'917.9
2019-Jan-17 17:00N 51°03' E 001°29'714.9
2019-Jan-17 16:30N 51°07' E 001°20'0 0.0
2019-Jan-17 16:00N 51°07' E 001°20'0 0.0
2019-Jan-17 15:30N 51°07' E 001°20'2 3.3
2019-Jan-17 15:00N 51°07' E 001°23'917.8
2019-Jan-17 14:30N 51°03' E 001°35'917.6
2019-Jan-17 14:00N 50°58' E 001°47'3 4.9
2019-Jan-17 13:30N 50°58' E 001°51'0 0.0
2019-Jan-17 12:59N 50°58' E 001°51'3 6.3
2019-Jan-17 12:30N 50°58' E 001°46'817.2
2019-Jan-17 12:00N 51°02' E 001°34'918.7
2019-Jan-17 11:31N 51°07' E 001°22'1 2.4
2019-Jan-17 11:00N 51°07' E 001°20'0 0.1
2019-Jan-17 10:30N 51°07' E 001°20'612.7
2019-Jan-17 10:00N 51°04' E 001°29'816.7
2019-Jan-17 09:30N 51°01' E 001°41'713.3
2019-Jan-17 09:01N 50°58' E 001°51'0 0.1
2019-Jan-17 08:06N 50°58' E 001°51'0 4.1
2019-Jan-17 08:00N 50°58' E 001°50'918.2
2019-Jan-17 07:30N 50°60' E 001°36'918.9
2019-Jan-17 07:00N 51°06' E 001°25'3 6.6
2019-Jan-17 06:30N 51°07' E 001°20'0 0.0
2019-Jan-17 06:00N 51°07' E 001°20'511.0
2019-Jan-17 05:30N 51°06' E 001°28'918.5
2019-Jan-17 05:00N 51°01' E 001°40'714.4
2019-Jan-17 04:30N 50°58' E 001°51'0 0.2
2019-Jan-17 03:59N 50°58' E 001°51'1 2.8
2019-Jan-17 03:30N 50°58' E 001°49'1717.3
2019-Jan-17 02:30N 51°06' E 001°24'3 6.0
2019-Jan-17 02:00N 51°07' E 001°20'0 0.0
2019-Jan-17 01:30N 51°07' E 001°20'510.1
2019-Jan-17 01:01N 51°06' E 001°28'713.4
2019-Jan-17 00:30N 51°02' E 001°36'816.9
2019-Jan-17 00:00N 50°58' E 001°48'2 3.4
2019-Jan-16 23:30N 50°58' E 001°51'0 0.0
2019-Jan-16 22:55N 50°58' E 001°51'410.0
2019-Jan-16 22:31N 50°58' E 001°45'1019.0
2019-Jan-16 22:00N 51°01' E 001°31'917.6
2019-Jan-16 21:31N 51°07' E 001°20'0 0.5
2019-Jan-16 20:40N 51°07' E 001°20'0 0.1
2019-Jan-16 20:30N 51°07' E 001°20'510.6
2019-Jan-16 20:01N 51°05' E 001°28'917.6
2019-Jan-16 19:31N 51°00' E 001°39'714.9
2019-Jan-16 19:00N 50°58' E 001°51'0 0.4
2019-Jan-16 18:28N 50°58' E 001°51'0 0.4
2019-Jan-16 17:55N 50°58' E 001°51'716.4
2019-Jan-16 17:30N 50°59' E 001°40'918.0
2019-Jan-16 17:00N 51°05' E 001°29'6 4.1
2019-Jan-16 15:29N 51°07' E 001°20'4 9.1
2019-Jan-16 15:00N 51°06' E 001°27'918.6
2019-Jan-16 14:30N 51°00' E 001°38'816.5
2019-Jan-16 14:01N 50°58' E 001°51'0 0.4
2019-Jan-16 13:28N 50°58' E 001°51'1 1.2
2019-Jan-16 13:00N 50°58' E 001°50'817.1
2019-Jan-16 12:30N 50°59' E 001°37'917.8
2019-Jan-16 12:00N 51°05' E 001°26'5 3.2
2019-Jan-16 10:36N 51°07' E 001°20'0 1.2
2019-Jan-16 10:30N 51°07' E 001°20'613.1
2019-Jan-16 10:01N 51°05' E 001°30'918.2
2019-Jan-16 09:31N 50°60' E 001°41'6 9.4
2019-Jan-16 08:50N 50°58' E 001°51'0 0.0
2019-Jan-16 08:27N 50°58' E 001°51'0 0.6
2019-Jan-16 08:00N 50°58' E 001°51'1117.6
2019-Jan-16 07:23N 51°01' E 001°34'718.4
2019-Jan-16 07:00N 51°05' E 001°25'4 7.6
2019-Jan-16 06:30N 51°07' E 001°20'0 0.0
2019-Jan-16 06:00N 51°07' E 001°20'0 0.1
2019-Jan-16 05:30N 51°07' E 001°20'2 5.0
2019-Jan-16 05:01N 51°07' E 001°24'917.2
2019-Jan-16 04:31N 51°02' E 001°36'917.2
2019-Jan-16 04:01N 50°58' E 001°48'2 1.9
2019-Jan-16 02:52N 50°58' E 001°51'3 6.9
2019-Jan-16 02:30N 50°58' E 001°47'714.7
2019-Jan-16 02:00N 50°59' E 001°36'816.7
2019-Jan-16 01:30N 51°05' E 001°26'4 3.9
2019-Jan-16 00:23N 51°07' E 001°20'2 4.9
2019-Jan-16 00:00N 51°07' E 001°23'917.5
2019-Jan-15 23:30N 51°03' E 001°35'917.8
2019-Jan-15 23:00N 50°58' E 001°47'2 4.5
2019-Jan-15 22:29N 50°58' E 001°51'0 0.0
2019-Jan-15 22:00N 50°58' E 001°51'4 7.9
2019-Jan-15 21:30N 50°58' E 001°45'918.2
2019-Jan-15 21:00N 51°02' E 001°32'918.0
2019-Jan-15 20:30N 51°07' E 001°20'0 0.3
2019-Jan-15 20:00N 51°07' E 001°20'0 0.3
2019-Jan-15 19:31N 51°07' E 001°20'714.3
2019-Jan-15 19:01N 51°04' E 001°31'917.9
2019-Jan-15 18:31N 50°59' E 001°42'6 9.5
2019-Jan-15 17:55N 50°58' E 001°51'0 0.0
2019-Jan-15 17:21N 50°58' E 001°51'2 5.2
2019-Jan-15 17:00N 50°58' E 001°48'918.9
2019-Jan-15 16:31N 51°01' E 001°34'918.8
2019-Jan-15 16:00N 51°07' E 001°22'1 2.8
2019-Jan-15 15:30N 51°07' E 001°20'0 0.0
2019-Jan-15 15:00N 51°07' E 001°20'510.1
2019-Jan-15 14:30N 51°06' E 001°28'918.4
2019-Jan-15 14:00N 51°00' E 001°40'714.7
2019-Jan-15 13:30N 50°58' E 001°51'0 0.3
2019-Jan-15 12:59N 50°58' E 001°51'0 0.8
2019-Jan-15 12:29N 50°58' E 001°50'816.3
2019-Jan-15 12:00N 50°59' E 001°38'918.8
2019-Jan-15 11:30N 51°05' E 001°26'5 9.4
2019-Jan-15 11:00N 51°07' E 001°20'0 0.0
2019-Jan-15 10:28N 51°07' E 001°20'4 8.7
2019-Jan-15 10:00N 51°06' E 001°26'917.9
2019-Jan-15 09:30N 51°01' E 001°38'816.3
2019-Jan-15 09:00N 50°58' E 001°50'1 1.0
2019-Jan-15 08:25N 50°58' E 001°51'0 0.0
2019-Jan-15 07:57N 50°58' E 001°51'612.9
2019-Jan-15 07:30N 50°58' E 001°42'1019.2
2019-Jan-15 07:00N 51°03' E 001°29'713.8
2019-Jan-15 06:30N 51°07' E 001°20'0 0.0
2019-Jan-15 06:00N 51°07' E 001°20'0 0.0
2019-Jan-15 05:30N 51°07' E 001°20'2 3.8
2019-Jan-15 05:00N 51°07' E 001°23'816.4
2019-Jan-15 04:31N 51°03' E 001°34'917.6
2019-Jan-15 04:00N 50°58' E 001°46'3 5.0
2019-Jan-15 03:23N 50°58' E 001°51'0 0.0
2019-Jan-15 03:00N 50°58' E 001°51'0 0.2
2019-Jan-15 02:29N 50°58' E 001°51'714.8
2019-Jan-15 02:00N 50°58' E 001°39'714.6
2019-Jan-15 01:30N 51°02' E 001°30'815.3
2019-Jan-15 00:59N 51°07' E 001°20'0 0.0
2019-Jan-15 00:30N 51°07' E 001°20'0 0.0
2019-Jan-15 00:00N 51°07' E 001°20'612.8
2019-Jan-14 23:30N 51°05' E 001°29'918.2
2019-Jan-14 23:01N 50°60' E 001°41'6 8.2
2019-Jan-14 22:14N 50°58' E 001°51'0 0.0
2019-Jan-14 21:59N 50°58' E 001°51'2 4.2
2019-Jan-14 21:30N 50°58' E 001°48'917.3
2019-Jan-14 21:00N 51°00' E 001°35'1019.2
2019-Jan-14 20:31N 51°06' E 001°23'2 3.8
2019-Jan-14 20:00N 51°07' E 001°20'0 0.4
2019-Jan-14 19:30N 51°07' E 001°20'917.3
2019-Jan-14 19:00N 51°04' E 001°33'918.2
2019-Jan-14 18:30N 50°58' E 001°45'4 7.4
2019-Jan-14 17:54N 50°58' E 001°52'0 0.0
2019-Jan-14 17:22N 50°58' E 001°52'410.6
2019-Jan-14 17:01N 50°58' E 001°46'1019.4
2019-Jan-14 16:31N 51°00' E 001°31'918.2
2019-Jan-14 16:01N 51°07' E 001°21'1 1.3
2019-Jan-14 15:30N 51°07' E 001°20'0 0.2
2019-Jan-14 15:00N 51°07' E 001°20'714.8
2019-Jan-14 14:30N 51°06' E 001°32'918.2
2019-Jan-14 14:00N 50°59' E 001°42'611.2
2019-Jan-14 13:30N 50°58' E 001°51'0 0.0
2019-Jan-14 12:59N 50°58' E 001°51'3 5.9
2019-Jan-14 12:30N 50°58' E 001°47'917.1
2019-Jan-14 12:00N 51°00' E 001°34'918.7
2019-Jan-14 11:30N 51°06' E 001°22'2 3.3
2019-Jan-14 11:00N 51°07' E 001°20'0 0.1
2019-Jan-14 10:30N 51°07' E 001°20'612.7
2019-Jan-14 10:00N 51°06' E 001°30'918.0
2019-Jan-14 09:30N 51°00' E 001°41'713.4
2019-Jan-14 09:00N 50°58' E 001°51'0 0.1
2019-Jan-14 08:25N 50°58' E 001°51'0 0.6
2019-Jan-14 08:00N 50°58' E 001°51'816.7
2019-Jan-14 07:29N 50°59' E 001°37'918.5
2019-Jan-14 07:00N 51°04' E 001°27'5 9.7
2019-Jan-14 06:29N 51°07' E 001°20'0 0.0
2019-Jan-14 06:00N 51°07' E 001°20'0 0.0
2019-Jan-14 05:28N 51°07' E 001°20'3 6.9
2019-Jan-14 05:00N 51°07' E 001°25'917.8
2019-Jan-14 04:30N 51°02' E 001°37'816.0
2019-Jan-14 04:01N 50°58' E 001°48'2 2.3
2019-Jan-14 03:16N 50°58' E 001°51'0 0.0
2019-Jan-14 02:49N 50°58' E 001°51'0 0.6
2019-Jan-14 02:28N 50°58' E 001°51'714.7
2019-Jan-14 02:00N 50°59' E 001°40'713.6
2019-Jan-14 01:30N 51°02' E 001°31'713.3
2019-Jan-14 01:00N 51°06' E 001°23'2 3.5
2019-Jan-14 00:28N 51°07' E 001°20'0 0.2
2019-Jan-14 00:00N 51°07' E 001°20'613.0
2019-Jan-13 23:30N 51°05' E 001°29'816.3
2019-Jan-13 23:00N 51°00' E 001°40'714.4
2019-Jan-13 22:31N 50°58' E 001°51'  

Dump ship's entire track history